Data for 07/28/2008

Time Sea-Level Adjusted Pressure Absolute Pressure Temperature Relative Humidity Dew Point   
(mb) (inHg) (mb) (inHg) (C) (F) (%) (C) (F)
00:05 1015 29.97 844 24.92 20.3 68.6 34 4 39.2
00:10 1015 29.97 844 24.92 20.3 68.6 34 4 39.2
00:15 1015 29.97 844 24.92 20.2 68.4 34 3.8 38.9
00:20 1015 29.97 844 24.92 20.2 68.3 34 3.9 39.1
00:25 1015 29.97 845 24.95 19.9 67.9 36 4.4 39.9
00:30 1015 29.97 845 24.95 19.5 67.1 37 4.4 39.9
00:35 1016 30 845 24.95 19.3 66.7 37 4.2 39.6
00:40 1016 30 845 24.95 19.4 66.9 35 3.7 38.6
00:45 1016 30 845 24.95 19.4 67 35 3.9 39
00:50 1016 30 845 24.95 19.5 67.1 33 3.1 37.6
00:55 1016 30 845 24.95 19.5 67.1 37 4.6 40.3
01:00 1016 30 845 24.95 18.9 66 38 4.3 39.7
01:05 1016 30 845 24.95 18.8 65.8 38 4.1 39.4
01:10 1016 30 845 24.95 18.9 66 36 3.8 38.8
01:15 1016 30 845 24.95 19 66.2 36 3.9 39
01:20 1016 30 845 24.95 19 66.2 36 3.8 38.9
01:25 1016 30 845 24.95 19 66.1 37 4.2 39.5
01:30 1016 30 845 24.95 18.8 65.9 37 3.8 38.8
01:35 1016 30 845 24.95 19 66.1 35 3.4 38.2
01:40 1016 30 845 24.95 19.1 66.4 35 3.4 38
01:45 1016 30 845 24.95 18.9 66.1 38 4.4 40
01:50 1016 30 845 24.95 18.1 64.6 40 4.4 39.8
01:55 1016 30 845 24.95 17.7 63.8 41 4.4 39.9
02:00 1016 30 845 24.95 17.7 63.8 40 3.9 39
02:05 1016 30 845 24.95 18.1 64.5 37 3.3 38
02:10 1016 30 845 24.95 18.4 65 38 3.9 39.1
02:15 1016 30 845 24.95 17.9 64.2 41 4.7 40.4
02:20 1016 30 845 24.95 17.6 63.6 39 3.5 38.3
02:25 1016 30 845 24.95 18.1 64.6 37 3.3 37.9
02:30 1016 30 845 24.95 18.5 65.3 36 3.1 37.5
02:35 1016 30 845 24.95 18.4 65.2 37 3.7 38.7
02:40 1016 30 845 24.95 18 64.3 38 3.4 38.1
02:45 1016 30 846 24.98 17.9 64.2 39 3.9 39.1
02:50 1016 30 846 24.98 17.5 63.4 39 3.6 38.5
02:55 1016 30 846 24.98 17.7 63.8 39 3.8 38.9
03:00 1016 30 846 24.98 17.4 63.4 39 3.6 38.5
03:05 1017 30.03 846 24.98 17.2 63 41 4.1 39.4
03:10 1017 30.03 846 24.98 16.8 62.3 42 4 39.3
03:15 1017 30.03 846 24.98 16.7 62 44 4.4 39.8
03:20 1017 30.03 846 24.98 16.5 61.6 45 4.7 40.5
03:25 1017 30.03 846 24.98 16.5 61.7 45 4.7 40.4
03:30 1017 30.03 846 24.98 16.3 61.4 45 4.6 40.3
03:35 1017 30.03 846 24.98 16.3 61.3 43 3.6 38.5
03:40 1017 30.03 846 24.98 16.6 61.8 46 5 41
03:45 1017 30.03 846 24.98 16.6 61.9 44 4.4 40
03:50 1017 30.03 846 24.98 16.4 61.5 44 4.2 39.6
03:55 1017 30.03 846 24.98 16.3 61.3 46 4.8 40.7
04:00 1017 30.03 846 24.98 16 60.9 46 4.4 39.9
04:05 1017 30.03 846 24.98 16 60.8 48 5.2 41.4
04:10 1017 30.03 846 24.98 15.9 60.5 48 4.9 40.9
04:15 1017 30.03 846 24.98 15.9 60.6 46 4.4 39.9
04:20 1017 30.03 846 24.98 15.8 60.5 47 4.7 40.4
04:25 1017 30.03 846 24.98 15.5 59.8 50 5.2 41.4
04:30 1017 30.03 846 24.98 15.1 59.1 50 4.9 40.8
04:35 1017 30.03 846 24.98 15.1 59.1 51 5.1 41.2
04:40 1017 30.03 846 24.98 15.1 59.1 49 4.5 40.2
04:45 1017 30.03 846 24.98 15.1 59.1 52 5.3 41.5
04:50 1017 30.03 846 24.98 15 58.9 52 5.1 41.3
04:55 1017 30.03 846 24.98 14.8 58.7 51 4.8 40.6
05:00 1017 30.03 846 24.98 14.7 58.5 49 4.3 39.8
05:05 1017 30.03 846 24.98 14.6 58.2 50 4.5 40.1
05:10 1017 30.03 846 24.98 14.4 57.9 52 4.7 40.4
05:15 1017 30.03 846 24.98 14.1 57.3 54 5.1 41.1
05:20 1017 30.03 846 24.98 13.7 56.7 53 4.5 40.1
05:25 1017 30.03 846 24.98 13.8 56.9 55 4.9 40.9
05:30 1017 30.03 847 25.01 13.5 56.3 54 4.4 39.9
05:35 1017 30.03 847 25.01 13.8 56.8 51 3.8 38.8
05:40 1017 30.03 847 25.01 14.2 57.5 50 4 39.3
05:45 1017 30.03 847 25.01 14.1 57.4 51 4.1 39.4
05:50 1017 30.03 847 25.01 13.9 57 52 4.4 39.9
05:55 1018 30.06 847 25.01 13.8 56.9 51 3.8 38.9
06:00 1018 30.06 847 25.01 13.9 57.1 51 4.1 39.4
06:05 1018 30.06 847 25.01 14 57.2 51 4 39.2
06:10 1018 30.06 847 25.01 14.1 57.3 52 4.4 39.9
06:15 1018 30.06 847 25.01 13.9 57 52 4.1 39.4
06:20 1018 30.06 847 25.01 14 57.2 50 4 39.2
06:25 1018 30.06 847 25.01 14.1 57.3 51 4.1 39.4
06:30 1018 30.06 847 25.01 14.1 57.4 50 3.9 39.1
06:35 1018 30.06 847 25.01 14.3 57.7 48 3.6 38.5
06:40 1018 30.06 847 25.01 14.6 58.2 49 4.2 39.6
06:45 1018 30.06 847 25.01 14.6 58.2 50 4.2 39.6
06:50 1018 30.06 847 25.01 14.5 58.1 50 4.4 39.8
06:55 1018 30.06 847 25.01 14.5 58 50 4.4 39.9
07:00 1018 30.06 847 25.01 14.4 57.9 52 4.6 40.3
07:05 1018 30.06 847 25.01 14.4 57.9 53 5 41
07:10 1018 30.06 847 25.01 14.4 57.9 54 5.2 41.3
07:15 1018 30.06 847 25.01 14.2 57.5 53 4.8 40.6
07:20 1018 30.06 847 25.01 14.1 57.3 53 4.7 40.4
07:25 1018 30.06 847 25.01 14.4 57.9 52 4.7 40.5
07:30 1018 30.06 847 25.01 14.7 58.5 51 4.7 40.5
07:35 1018 30.06 847 25.01 15 58.9 51 5 41
07:40 1018 30.06 847 25.01 15 59 52 5.2 41.3
07:45 1018 30.06 847 25.01 15.1 59.1 52 5.4 41.7
07:50 1018 30.06 847 25.01 15.3 59.5 50 4.9 40.8
07:55 1018 30.06 848 25.04 15.6 60.1 49 5 41
08:00 1018 30.06 848 25.04 16 60.8 48 5.2 41.3
08:05 1018 30.06 848 25.04 16.4 61.4 47 5.2 41.4
08:10 1018 30.06 848 25.04 17 62.6 46 5.3 41.5
08:15 1018 30.06 848 25.04 17.7 63.8 46 5.9 42.6
08:20 1018 30.06 848 25.04 17.9 64.1 42 5 41
08:25 1018 30.06 848 25.04 18.3 65 42 5.2 41.4
08:30 1018 30.06 848 25.04 18.7 65.6 44 6.1 43
08:35 1018 30.06 848 25.04 18.8 65.9 41 5.5 41.9
08:40 1018 30.06 848 25.04 19.2 66.6 42 6.1 43
08:45 1018 30.06 848 25.04 19 66.1 42 6 42.8
08:50 1018 30.06 848 25.04 19.2 66.6 43 6.3 43.4
08:55 1018 30.06 848 25.04 19.5 67 35 3.7 38.6
09:00 1018 30.06 848 25.04 19.7 67.4 36 4.1 39.4
09:05 1018 30.06 848 25.04 20.5 69 35 4.5 40.2
09:10 1018 30.06 848 25.04 21.1 69.9 33 4.5 40.1
09:15 1018 30.06 848 25.04 20.6 69.1 34 4.5 40.1
09:20 1018 30.06 848 25.04 20.2 68.4 35 4.5 40.2
09:25 1018 30.06 848 25.04 20.7 69.3 33 4 39.3
09:30 1018 30.06 848 25.04 21.5 70.6 33 4.6 40.3
09:35 1018 30.06 848 25.04 21.2 70.2 32 4.3 39.7
09:40 1018 30.06 848 25.04 21.7 71 32 4.6 40.3
09:45 1018 30.06 847 25.01 22.3 72.1 32 4.8 40.6
09:50 1018 30.06 847 25.01 22.3 72.1 31 4.3 39.8
09:55 1018 30.06 847 25.01 22.1 71.7 31 4.5 40.1
10:00 1018 30.06 847 25.01 22.1 71.8 32 4.9 40.8
10:05 1018 30.06 847 25.01 22.2 72 33 5.2 41.4
10:10 1018 30.06 847 25.01 22.2 71.9 33 5.1 41.2
10:15 1018 30.06 847 25.01 22.7 72.8 31 4.8 40.6
10:20 1018 30.06 847 25.01 22.9 73.3 30 4.9 40.8
10:25 1018 30.06 847 25.01 23.4 74 30 5 40.9
10:30 1018 30.06 847 25.01 23.6 74.5 30 5.4 41.8
10:35 1018 30.06 847 25.01 22.6 72.6 31 4.9 40.7
10:40 1018 30.06 847 25.01 22 71.6 32 4.8 40.7
10:45 1018 30.06 847 25.01 23.2 73.7 29 4.4 40
10:50 1018 30.06 847 25.01 23.2 73.7 31 5.5 41.9
10:55 1018 30.06 847 25.01 23.4 74.2 29 4.5 40.2
11:00 1018 30.06 847 25.01 23.8 74.8 28 4.2 39.6
11:05 1018 30.06 847 25.01 24.4 76 28 4.7 40.5
11:10 1018 30.06 847 25.01 24.4 75.9 29 5.5 41.8
11:15 1018 30.06 847 25.01 24.2 75.5 29 5.2 41.3
11:20 1018 30.06 847 25.01 24.3 75.7 28 4.6 40.3
11:25 1018 30.06 847 25.01 25 77 26 4.6 40.3
11:30 1018 30.06 847 25.01 25.6 78.2 27 5.4 41.7
11:35 1018 30.06 847 25.01 24.9 76.7 28 5.4 41.8
11:40 1018 30.06 847 25.01 24.6 76.2 27 4.8 40.6
11:45 1018 30.06 847 25.01 24.5 76 28 5 41
11:50 1017 30.03 847 25.01 24.4 75.9 28 4.8 40.6
11:55 1017 30.03 847 25.01 24.7 76.4 27 4.7 40.5
12:00 1017 30.03 847 25.01 25.8 78.5 25 4.6 40.4
12:05 1017 30.03 847 25.01 26.3 79.3 26 5.4 41.7
12:10 1017 30.03 847 25.01 25 76.9 28 5.5 41.9
12:15 1017 30.03 847 25.01 24.7 76.5 28 5.5 41.8
12:20 1017 30.03 847 25.01 25.6 78.1 26 5.1 41.2
12:25 1017 30.03 847 25.01 25.1 77.2 28 5.8 42.4
12:30 1017 30.03 846 24.98 26.1 79 25 5 41
12:35 1017 30.03 846 24.98 26.9 80.3 25 5.7 42.2
12:40 1017 30.03 846 24.98 26.7 80 28 6.7 44.1
12:45 1017 30.03 846 24.98 26.1 79 27 5.7 42.3
12:50 1017 30.03 846 24.98 26.5 79.6 27 6 42.8
12:55 1017 30.03 846 24.98 26.5 79.7 25 5.2 41.4
13:00 1017 30.03 846 24.98 27.1 80.9 25 5.6 42.1
13:05 1017 30.03 846 24.98 27.7 81.8 24 5.6 42
13:10 1017 30.03 846 24.98 27.7 81.8 24 5.4 41.6
13:15 1017 30.03 846 24.98 27.8 82.1 23 4.8 40.7
13:20 1017 30.03 846 24.98 27.9 82.2 22 4.7 40.5
13:25 1017 30.03 846 24.98 28.1 82.6 23 5.6 42.2
13:30 1017 30.03 846 24.98 28.2 82.8 23 5.6 42
13:35 1017 30.03 846 24.98 27.8 82 23 5.1 41.2
13:40 1017 30.03 846 24.98 28 82.4 22 4.5 40
13:45 1017 30.03 846 24.98 27.7 81.9 23 5 41
13:50 1017 30.03 846 24.98 27.4 81.4 23 4.6 40.3
13:55 1017 30.03 846 24.98 27.3 81.1 24 5.4 41.8
14:00 1017 30.03 846 24.98 27.8 82 22 4.5 40.2
14:05 1017 30.03 846 24.98 27.9 82.2 23 5 41
14:10 1017 30.03 846 24.98 27.6 81.7 21 3.9 39.1
14:15 1017 30.03 846 24.98 26.9 80.4 22 3.5 38.3
14:20 1017 30.03 846 24.98 27.4 81.4 21 3.6 38.5
14:25 1017 30.03 846 24.98 27.7 81.9 22 4.2 39.6
14:30 1017 30.03 846 24.98 27.4 81.3 22 4.2 39.6
14:35 1017 30.03 846 24.98 27.4 81.4 21 3.6 38.5
14:40 1017 30.03 846 24.98 28 82.3 20 3.4 38.2
14:45 1017 30.03 846 24.98 28.1 82.5 20 3.5 38.3
14:50 1017 30.03 846 24.98 28.3 82.9 21 4 39.2
14:55 1017 30.03 846 24.98 28.3 82.9 21 3.9 39.1
15:00 1017 30.03 846 24.98 28.4 83 19 3.1 37.6
15:05 1017 30.03 846 24.98 28.1 82.6 20 3.3 38
15:10 1017 30.03 846 24.98 28.1 82.6 21 4.3 39.7
15:15 1017 30.03 846 24.98 28 82.4 21 3.7 38.6
15:20 1017 30.03 846 24.98 28 82.4 20 3.3 38
15:25 1017 30.03 846 24.98 28.6 83.6 20 4 39.1
15:30 1017 30.03 846 24.98 28.7 83.7 20 3.9 39
15:35 1017 30.03 846 24.98 28.7 83.7 21 4.6 40.3
15:40 1017 30.03 846 24.98 27.9 82.2 20 3.4 38.1
15:45 1017 30.03 846 24.98 27.3 81.2 20 3 37.4
15:50 1017 30.03 846 24.98 27.7 81.9 19 2.5 36.5
15:55 1017 30.03 846 24.98 28.1 82.5 20 3.1 37.6
16:00 1016 30 846 24.98 28.6 83.5 19 3 37.4
16:05 1016 30 846 24.98 28.8 83.8 18 2.5 36.6
16:10 1016 30 846 24.98 28.6 83.4 20 3.7 38.6
16:15 1016 30 846 24.98 28.7 83.7 19 3.3 37.9
16:20 1016 30 846 24.98 28.6 83.4 18 2.4 36.4
16:25 1016 30 846 24.98 28.9 84.1 18 2.7 36.9
16:30 1016 30 846 24.98 28.7 83.7 19 3.2 37.7
16:35 1016 30 845 24.95 29.4 84.9 18 2.9 37.3
16:40 1016 30 845 24.95 29.9 85.9 16 1.8 35.2
16:45 1016 30 845 24.95 30.3 86.6 16 1.8 35.3
16:50 1016 30 845 24.95 29.5 85.1 18 3 37.3
16:55 1016 30 845 24.95 29 84.2 17 2.1 35.8
17:00 1016 30 845 24.95 28.9 83.9 17 1.8 35.3
17:05 1016 30 845 24.95 28.3 82.9 18 1.9 35.4
17:10 1016 30 845 24.95 29.3 84.7 15 0.3 32.6
17:15 1016 30 845 24.95 29.7 85.5 17 2.1 35.8
17:20 1016 30 845 24.95 29.1 84.3 19 3.4 38.1
17:25 1016 30 845 24.95 29.4 84.9 17 2 35.5
17:30 1016 30 845 24.95 29.6 85.3 15 0.7 33.3
17:35 1016 30 845 24.95 29.7 85.5 15 1 33.7
17:40 1016 30 845 24.95 29.2 84.6 16 1.2 34.1
17:45 1016 30 845 24.95 29.1 84.3 16 0.7 33.2
17:50 1016 30 845 24.95 29.3 84.7 16 0.9 33.6
17:55 1016 30 845 24.95 29 84.2 18 2.5 36.5
18:00 1016 30 845 24.95 29 84.1 17 1.9 35.4
18:05 1016 30 845 24.95 29.2 84.6 18 2.8 37.1
18:10 1016 30 845 24.95 28.4 83.1 18 1.8 35.3
18:15 1016 30 845 24.95 28.5 83.3 17 1.4 34.5
18:20 1016 30 845 24.95 28.6 83.6 17 1.9 35.4
18:25 1016 30 845 24.95 28.5 83.3 18 2.5 36.4
18:30 1016 30 845 24.95 28.8 83.8 17 1.9 35.3
18:35 1016 30 845 24.95 28.7 83.6 17 1.5 34.7
18:40 1016 30 845 24.95 28.7 83.7 17 1.7 35.1
18:45 1016 30 845 24.95 28.5 83.2 17 1.6 34.9
18:50 1016 30 845 24.95 28.5 83.2 17 1.7 35.1
18:55 1016 30 845 24.95 28.5 83.3 18 2.4 36.3
19:00 1016 30 845 24.95 28.6 83.5 17 1.9 35.3
19:05 1016 30 845 24.95 28.9 84 18 2.4 36.3
19:10 1016 30 845 24.95 28.8 83.8 17 1.9 35.4
19:15 1016 30 845 24.95 28.7 83.6 20 3.5 38.3
19:20 1016 30 845 24.95 28.5 83.4 18 2.3 36.1
19:25 1016 30 845 24.95 28.2 82.7 19 2.8 37
19:30 1016 30 845 24.95 27.8 82.1 20 3.3 38
19:35 1016 30 845 24.95 27.8 82.1 21 3.6 38.5
19:40 1016 30 845 24.95 28 82.3 22 4.3 39.7
19:45 1016 30 845 24.95 27.9 82.1 21 3.8 38.9
19:50 1016 30 845 24.95 27.8 82.1 21 3.6 38.5
19:55 1016 30 845 24.95 27.7 81.9 21 3.5 38.3
20:00 1016 30 845 24.95 27.6 81.7 21 3.9 39
20:05 1016 30 845 24.95 27.5 81.4 22 4 39.2
20:10 1016 30 845 24.95 27.3 81.1 23 4.4 39.9
20:15 1016 30 845 24.95 27.2 80.9 22 3.9 39
20:20 1016 30 845 24.95 27 80.6 24 4.9 40.8
20:25 1016 30 845 24.95 26.8 80.3 25 5.5 42
20:30 1016 30 845 24.95 26.6 80 25 5.3 41.5
20:35 1016 30 845 24.95 26.5 79.6 27 6.1 43
20:40 1016 30 845 24.95 26 78.9 30 7.4 45.3
20:45 1016 30 845 24.95 25.7 78.2 33 8.3 47
20:50 1016 30 845 24.95 24.9 76.8 36 9.1 48.4
20:55 1016 30 846 24.98 24.3 75.8 35 8.2 46.8
21:00 1016 30 846 24.98 24.1 75.3 37 8.5 47.3
21:05 1016 30 846 24.98 23.3 74 40 9 48.2
21:10 1016 30 846 24.98 23 73.4 37 7.6 45.7
21:15 1017 30.03 846 24.98 23.1 73.5 33 6.1 43
21:20 1017 30.03 846 24.98 23.3 73.9 33 6.3 43.4
21:25 1017 30.03 846 24.98 23.3 74 29 4.6 40.3
21:30 1017 30.03 846 24.98 23.3 73.9 29 4.3 39.7
21:35 1017 30.03 846 24.98 23.2 73.8 28 4 39.1
21:40 1017 30.03 846 24.98 23.3 73.9 28 3.9 39.1
21:45 1017 30.03 846 24.98 23.1 73.5 37 7.6 45.7
21:50 1017 30.03 847 25.01 21.9 71.3 41 8.2 46.8
21:55 1017 30.03 847 25.01 21.3 70.3 34 4.8 40.6
22:00 1018 30.06 847 25.01 21.7 71 40 7.6 45.7
22:05 1018 30.06 847 25.01 21.5 70.7 28 2.2 36
22:10 1018 30.06 847 25.01 22.4 72.3 29 3.8 38.8
22:15 1018 30.06 847 25.01 22.7 72.9 29 4 39.2
22:20 1018 30.06 847 25.01 22.6 72.7 32 5.2 41.4
22:25 1018 30.06 847 25.01 22.4 72.4 31 4.7 40.5
22:30 1018 30.06 847 25.01 22.1 71.7 33 5.2 41.4
22:35 1018 30.06 847 25.01 21.9 71.4 34 5.5 41.9
22:40 1018 30.06 847 25.01 21.6 70.9 33 4.8 40.7
22:45 1018 30.06 847 25.01 21.8 71.2 35 5.9 42.6
22:50 1018 30.06 847 25.01 21.7 71.1 37 6.5 43.7
22:55 1018 30.06 847 25.01 21.2 70.2 34 5 41
23:00 1018 30.06 847 25.01 21.2 70.2 40 7.3 45.1
23:05 1018 30.06 847 25.01 20.7 69.2 32 3.8 38.8
23:10 1018 30.06 847 25.01 21.4 70.4 33 4.7 40.4
23:15 1018 30.06 847 25.01 21.2 70.2 30 3 37.3
23:20 1018 30.06 847 25.01 21.8 71.2 29 3 37.5
23:25 1018 30.06 847 25.01 21.5 70.6 32 4.1 39.4
23:30 1018 30.06 847 25.01 21.3 70.4 29 3 37.3
23:35 1018 30.06 847 25.01 21.4 70.5 27 2.1 35.7
23:40 1018 30.06 847 25.01 21.4 70.6 27 1.7 35.1
23:45 1018 30.06 847 25.01 21.6 70.8 29 3.1 37.6
23:50 1018 30.06 847 25.01 21.2 70.1 31 3.4 38.2
23:55 1018 30.06 847 25.01 20.8 69.4 33 4.1 39.4
24:00 1018 30.06 847 25.01 20.4 68.7 36 5 41.1